Time;durP1;ratioP1;P1;durP2;ratioP2;P2;SDS_P1;SDS_P2;PMS_P1;PMS_P2;Temp;Humidity;BMP_temperature;BMP_pressure;BME280_temperature;BME280_humidity;BME280_pressure;Samples;Min_cycle;Max_cycle;Signal;HPM_P1;HPM_P2
2022/11/10 00:02:26;;;;;;;2.20;1.77;;;;;;;13.20;98.13;99070.81;5040915;27;102612;-74
2022/11/10 00:05:14;;;;;;;4.00;1.97;;;;;;;13.21;98.29;99070.72;5039857;27;103882;-74
2022/11/10 00:08:02;;;;;;;4.67;1.87;;;;;;;13.08;98.13;99072.59;5042277;27;103032;-75
2022/11/10 00:10:58;;;;;;;2.13;1.40;;;;;;;12.98;98.92;99086.66;5040880;27;103130;-74
2022/11/10 00:17:00;;;;;;;3.03;1.60;;;;;;;13.12;97.55;99086.47;5024416;27;103954;-75
2022/11/10 00:19:46;;;;;;;4.63;1.77;;;;;;;13.15;97.71;99084.44;5042081;27;103224;-74
2022/11/10 00:22:33;;;;;;;3.60;1.50;;;;;;;13.23;97.62;99091.81;5042834;27;103157;-75
2022/11/10 00:25:20;;;;;;;1.70;1.60;;;;;;;13.20;97.58;99092.88;5044764;27;103092;-75
2022/11/10 00:28:06;;;;;;;4.60;2.20;;;;;;;13.22;97.17;99095.44;5045078;27;103607;-75
2022/11/10 00:30:54;;;;;;;1.93;1.23;;;;;;;13.16;97.53;99094.09;5042328;27;103673;-75
2022/11/10 00:33:42;;;;;;;3.20;1.93;;;;;;;13.18;98.01;99088.66;5044511;27;103233;-75
2022/11/10 00:36:28;;;;;;;3.27;1.60;;;;;;;13.19;97.98;99085.88;5042017;27;102793;-76
2022/11/10 00:39:15;;;;;;;3.07;1.47;;;;;;;13.11;97.97;99104.19;5044066;27;103441;-76
2022/11/10 00:42:01;;;;;;;2.60;1.63;;;;;;;13.14;97.27;99106.63;5045750;27;104448;-75
2022/11/10 00:44:48;;;;;;;1.40;1.10;;;;;;;13.09;96.79;99111.44;5040467;27;103117;-75
2022/11/10 00:47:35;;;;;;;1.83;1.10;;;;;;;13.13;97.25;99104.94;5045680;27;102510;-74
2022/11/10 00:50:22;;;;;;;5.47;1.63;;;;;;;13.10;95.83;99107.84;5041837;27;103830;-76
2022/11/10 00:53:08;;;;;;;2.80;1.40;;;;;;;12.97;96.95;99112.31;5045180;27;102586;-74
2022/11/10 00:55:55;;;;;;;1.53;1.20;;;;;;;12.93;95.71;99116.19;5043446;27;107652;-75
2022/11/10 00:58:42;;;;;;;2.00;1.50;;;;;;;12.89;95.42;99121.81;5039098;27;103676;-75
2022/11/10 01:01:28;;;;;;;5.00;1.90;;;;;;;12.83;94.93;99125.78;5043080;27;102768;-75
2022/11/10 01:04:16;;;;;;;6.27;2.00;;;;;;;12.65;95.19;99127.16;5039022;27;103281;-75
2022/11/10 01:07:03;;;;;;;8.13;2.43;;;;;;;12.69;95.36;99136.56;5041482;27;103187;-75
2022/11/10 01:09:49;;;;;;;1.53;1.30;;;;;;;12.71;96.45;99137.31;5040363;27;102699;-75
2022/11/10 01:12:36;;;;;;;8.13;2.10;;;;;;;12.69;95.98;99144.50;5042368;27;102756;-75
2022/11/10 01:15:22;;;;;;;4.33;1.87;;;;;;;12.55;97.50;99142.03;5039041;27;103845;-75
2022/11/10 01:18:13;;;;;;;7.17;2.10;;;;;;;12.45;96.88;99152.47;5041206;27;103088;-75
2022/11/10 01:21:01;;;;;;;4.60;1.93;;;;;;;12.43;96.92;99157.03;5043764;27;102736;-75
2022/11/10 01:23:47;;;;;;;6.07;2.03;;;;;;;12.52;96.45;99164.31;5041960;27;103562;-75
2022/11/10 01:26:34;;;;;;;2.83;1.47;;;;;;;12.54;97.02;99156.25;5039601;27;103956;-76
2022/11/10 01:29:20;;;;;;;4.43;1.40;;;;;;;12.58;96.15;99160.34;5040895;27;103178;-75
2022/11/10 01:32:07;;;;;;;1.50;1.30;;;;;;;12.63;95.83;99160.88;5042045;27;102731;-74
2022/11/10 01:34:53;;;;;;;3.60;1.57;;;;;;;12.53;95.37;99165.16;5041687;27;102945;-75
2022/11/10 01:37:41;;;;;;;6.17;2.03;;;;;;;12.30;95.26;99173.91;5040254;27;104411;-75
2022/11/10 01:40:27;;;;;;;5.13;1.90;;;;;;;12.30;96.25;99173.91;5040843;27;103323;-74
2022/11/10 01:43:14;;;;;;;2.60;1.70;;;;;;;12.26;96.55;99172.44;5042303;27;102582;-76
2022/11/10 01:46:02;;;;;;;4.13;1.70;;;;;;;12.09;97.68;99182.47;5042284;27;103872;-75
2022/11/10 01:52:53;;;;;;;1.97;1.33;;;;;;;12.32;96.21;99182.63;5035843;27;103065;-73
2022/11/10 01:55:43;;;;;;;4.00;1.63;;;;;;;12.24;95.51;99191.09;5054692;27;102707;-73
2022/11/10 01:58:33;;;;;;;2.87;1.17;;;;;;;12.27;96.06;99182.94;5040785;27;104538;-74
2022/11/10 02:01:19;;;;;;;4.17;1.50;;;;;;;12.26;95.91;99177.75;5034568;27;103745;-75
2022/11/10 02:04:08;;;;;;;5.57;2.37;;;;;;;12.21;95.86;99176.25;5045251;27;103181;-74
2022/11/10 02:06:54;;;;;;;2.57;1.60;;;;;;;12.18;95.86;99181.78;5046450;27;102816;-75
2022/11/10 02:09:42;;;;;;;4.93;2.33;;;;;;;12.12;95.91;99182.25;5042872;27;102698;-75
2022/11/10 02:12:36;;;;;;;4.47;1.53;;;;;;;12.18;96.12;99187.06;5045909;27;103315;-75
2022/11/10 02:15:23;;;;;;;6.97;2.13;;;;;;;12.04;95.77;99186.38;5047087;27;103168;-75
2022/11/10 02:18:09;;;;;;;4.33;2.20;;;;;;;11.94;95.34;99193.25;5038931;27;103320;-75
2022/11/10 02:20:57;;;;;;;4.47;2.23;;;;;;;11.96;96.75;99202.78;5036661;27;102670;-74
2022/11/10 02:23:46;;;;;;;4.30;1.83;;;;;;;12.03;96.07;99208.50;5037870;27;103162;-75
2022/11/10 02:26:34;;;;;;;6.10;1.93;;;;;;;11.77;95.56;99215.63;5039160;27;103078;-74
2022/11/10 02:29:21;;;;;;;6.30;2.50;;;;;;;11.65;96.70;99219.06;5046911;27;102688;-75
2022/11/10 02:32:07;;;;;;;4.17;1.37;;;;;;;11.78;96.63;99217.31;5040254;27;102827;-75
2022/11/10 02:34:54;;;;;;;6.00;1.93;;;;;;;11.61;96.70;99217.59;5039011;27;103231;-75
2022/11/10 02:37:42;;;;;;;4.13;1.63;;;;;;;11.68;96.65;99223.34;5041984;27;102701;-74
2022/11/10 02:40:28;;;;;;;2.27;1.40;;;;;;;11.70;96.18;99227.59;5041189;27;102655;-75
2022/11/10 02:43:16;;;;;;;7.83;1.93;;;;;;;11.69;95.89;99240.88;5049447;27;102992;-75
2022/11/10 02:46:03;;;;;;;3.40;1.87;;;;;;;11.46;95.19;99245.09;5040513;27;103184;-75
2022/11/10 02:48:49;;;;;;;3.67;1.90;;;;;;;11.33;97.92;99244.22;5037856;27;103209;-76
2022/11/10 02:51:36;;;;;;;2.83;1.50;;;;;;;11.33;97.48;99250.38;5039819;27;102698;-75
2022/11/10 02:54:23;;;;;;;2.33;1.57;;;;;;;11.35;96.19;99258.19;5040652;27;102724;-75
2022/11/10 02:57:10;;;;;;;3.70;1.80;;;;;;;11.39;96.32;99259.69;5037262;27;103720;-75
2022/11/10 02:59:56;;;;;;;5.00;1.50;;;;;;;11.39;95.85;99254.41;5041894;27;103119;-75
2022/11/10 03:02:43;;;;;;;1.93;1.40;;;;;;;11.35;94.93;99261.69;5037494;27;102864;-75
2022/11/10 03:05:30;;;;;;;3.07;2.00;;;;;;;11.21;94.25;99268.84;5040062;27;103139;-74
2022/11/10 03:08:16;;;;;;;5.23;1.90;;;;;;;11.11;95.07;99271.25;5040450;27;104796;-74
2022/11/10 03:11:05;;;;;;;2.40;1.40;;;;;;;11.10;96.00;99268.69;5037979;27;103140;-74
2022/11/10 03:13:51;;;;;;;5.23;2.23;;;;;;;11.02;95.34;99274.50;5039041;27;102618;-75
2022/11/10 03:16:47;;;;;;;4.57;2.10;;;;;;;10.87;96.17;99286.91;5040678;27;102689;-75
2022/11/10 03:19:34;;;;;;;4.90;2.37;;;;;;;10.86;96.96;99282.53;5038823;27;103918;-75
2022/11/10 03:22:20;;;;;;;4.27;2.17;;;;;;;10.92;96.57;99290.09;5039901;27;103128;-74
2022/11/10 03:25:08;;;;;;;6.47;2.20;;;;;;;11.02;97.08;99293.84;5038203;27;102627;-75
2022/11/10 03:27:56;;;;;;;2.23;1.53;;;;;;;11.13;96.88;99302.88;5037613;27;103571;-74
2022/11/10 03:30:43;;;;;;;1.70;1.40;;;;;;;11.16;96.87;99289.44;5038927;27;103617;-75
2022/11/10 03:33:29;;;;;;;4.20;1.60;;;;;;;11.17;95.96;99302.56;5038464;27;102602;-75
2022/11/10 03:36:16;;;;;;;1.37;1.23;;;;;;;11.15;95.52;99288.59;5037145;27;102827;-75
2022/11/10 03:39:02;;;;;;;2.80;1.30;;;;;;;11.04;95.37;99305.16;5040080;27;103632;-75
2022/11/10 03:41:48;;;;;;;2.97;1.37;;;;;;;11.13;95.64;99310.81;5035951;27;103691;-75
2022/11/10 03:44:36;;;;;;;1.70;1.37;;;;;;;11.15;95.65;99314.19;5039135;27;103183;-75
2022/11/10 03:47:23;;;;;;;3.57;2.57;;;;;;;11.17;95.39;99309.66;5036657;27;102642;-74
2022/11/10 03:50:09;;;;;;;4.50;2.47;;;;;;;11.06;95.17;99315.63;5035251;27;103594;-75
2022/11/10 03:52:56;;;;;;;5.43;3.17;;;;;;;10.72;97.60;99319.56;5038793;27;103205;-74
2022/11/10 03:55:42;;;;;;;5.27;2.93;;;;;;;10.80;97.85;99314.69;5037147;27;103126;-75
2022/11/10 03:58:29;;;;;;;3.33;2.10;;;;;;;10.66;99.04;99320.00;5037904;27;102720;-75
2022/11/10 04:01:17;;;;;;;5.20;2.73;;;;;;;10.83;98.80;99324.22;5039087;27;102636;-75
2022/11/10 04:04:03;;;;;;;5.47;2.87;;;;;;;10.73;98.07;99328.34;5038151;27;104150;-75
2022/11/10 04:09:53;;;;;;;5.07;2.70;;;;;;;10.83;98.63;99333.00;5039821;27;102839;-74
2022/11/10 04:15:43;;;;;;;4.23;2.77;;;;;;;10.67;100.00;99356.03;5017475;27;104653;-75
2022/11/10 04:18:31;;;;;;;4.13;2.47;;;;;;;10.64;100.00;99360.66;5037585;27;102984;-75
2022/11/10 04:21:17;;;;;;;7.87;3.73;;;;;;;10.39;100.00;99362.16;5038430;27;103274;-74
2022/11/10 04:24:04;;;;;;;8.17;4.43;;;;;;;10.61;100.00;99359.03;5042311;27;104008;-74
2022/11/10 04:26:50;;;;;;;4.67;3.30;;;;;;;10.80;100.00;99359.63;5042374;27;103764;-75
2022/11/10 04:29:37;;;;;;;4.50;3.17;;;;;;;10.90;100.00;99357.22;5036819;27;103139;-74
2022/11/10 04:32:23;;;;;;;6.00;3.20;;;;;;;10.92;100.00;99372.03;5039334;27;102685;-75
2022/11/10 04:35:11;;;;;;;6.47;3.67;;;;;;;10.95;100.00;99371.00;5039410;27;102671;-75
2022/11/10 04:37:57;;;;;;;3.53;2.20;;;;;;;10.96;100.00;99373.56;5038388;27;103248;-75
2022/11/10 04:40:44;;;;;;;4.50;2.83;;;;;;;10.82;98.47;99370.06;5036570;27;103141;-74
2022/11/10 04:43:31;;;;;;;5.57;3.03;;;;;;;10.65;98.19;99378.19;5042437;27;103029;-74
2022/11/10 04:46:22;;;;;;;8.97;4.40;;;;;;;10.27;99.98;99383.19;5049384;27;102738;-75
2022/11/10 04:49:09;;;;;;;5.43;3.53;;;;;;;10.35;100.00;99394.16;5040866;27;104006;-75
2022/11/10 04:51:57;;;;;;;4.30;3.10;;;;;;;10.43;99.99;99397.16;5042244;27;102865;-74
2022/11/10 04:54:44;;;;;;;4.87;3.43;;;;;;;10.41;99.78;99404.34;5038591;27;102600;-74
2022/11/10 04:57:30;;;;;;;5.40;2.90;;;;;;;10.48;98.94;99403.03;5042423;27;102628;-74
2022/11/10 05:00:18;;;;;;;2.30;2.10;;;;;;;10.47;98.31;99393.38;5039656;27;104018;-74
2022/11/10 05:03:06;;;;;;;2.23;2.03;;;;;;;10.48;97.63;99395.09;5043457;27;102683;-74
2022/11/10 05:05:52;;;;;;;2.80;2.13;;;;;;;10.33;97.15;99406.59;5040764;27;103097;-74
2022/11/10 05:08:41;;;;;;;6.53;3.00;;;;;;;10.32;97.51;99413.69;5037580;27;103631;-74
2022/11/10 05:11:27;;;;;;;5.20;2.80;;;;;;;10.31;97.54;99421.69;5041916;27;103762;-74
2022/11/10 05:14:14;;;;;;;5.63;2.77;;;;;;;10.24;97.64;99428.28;5038798;27;103153;-74
2022/11/10 05:17:00;;;;;;;4.03;2.67;;;;;;;10.18;98.34;99431.28;5038077;27;102667;-74
2022/11/10 05:19:47;;;;;;;3.53;2.17;;;;;;;10.27;98.11;99431.56;5037365;27;102935;-74
2022/11/10 05:22:33;;;;;;;8.17;3.00;;;;;;;10.05;96.96;99435.56;5038424;27;103809;-75
2022/11/10 05:25:21;;;;;;;6.30;2.83;;;;;;;10.11;98.78;99436.03;5037763;27;103190;-74
2022/11/10 05:28:09;;;;;;;4.37;2.50;;;;;;;10.13;97.83;99443.91;5038865;27;102645;-73
2022/11/10 05:30:56;;;;;;;6.77;3.10;;;;;;;10.01;97.27;99449.88;5040314;27;102771;-76
2022/11/10 05:33:42;;;;;;;6.10;3.07;;;;;;;10.04;97.75;99445.25;5036226;27;103219;-75
2022/11/10 05:36:28;;;;;;;2.57;2.10;;;;;;;10.09;97.44;99444.97;5037811;27;103083;-75
2022/11/10 05:39:15;;;;;;;2.97;2.20;;;;;;;10.04;97.31;99454.97;5040869;27;102634;-75
2022/11/10 05:42:03;;;;;;;3.93;2.10;;;;;;;10.07;96.84;99446.88;5037749;27;103858;-75
2022/11/10 05:44:49;;;;;;;2.90;2.17;;;;;;;10.03;96.51;99447.97;5041178;27;102673;-75
2022/11/10 05:47:36;;;;;;;2.90;2.07;;;;;;;10.05;96.63;99440.84;5041447;27;103157;-75
2022/11/10 05:50:23;;;;;;;2.03;1.60;;;;;;;10.07;96.27;99447.72;5040801;27;102694;-74
2022/11/10 05:53:10;;;;;;;2.47;2.10;;;;;;;10.02;95.22;99451.56;5038428;27;104191;-74
2022/11/10 05:55:56;;;;;;;2.63;1.80;;;;;;;10.01;95.70;99457.78;5040740;27;103209;-75
2022/11/10 05:58:44;;;;;;;4.57;2.40;;;;;;;9.98;95.13;99455.31;5038207;27;103116;-75
2022/11/10 06:01:31;;;;;;;6.30;4.43;;;;;;;9.94;95.35;99461.72;5042034;27;103260;-73
2022/11/10 06:04:17;;;;;;;6.40;5.07;;;;;;;9.90;94.88;99475.09;5045949;27;102693;-73
2022/11/10 06:07:04;;;;;;;4.37;3.33;;;;;;;9.94;95.73;99464.38;5040354;27;103370;-74
2022/11/10 06:09:50;;;;;;;5.83;3.00;;;;;;;9.96;96.13;99479.19;5039550;27;102682;-73
2022/11/10 06:12:36;;;;;;;3.20;2.90;;;;;;;9.96;96.05;99495.00;5046845;27;102639;-73
2022/11/10 06:15:24;;;;;;;4.30;2.87;;;;;;;10.01;96.22;99502.66;5041961;27;102639;-73
2022/11/10 06:18:11;;;;;;;4.80;3.67;;;;;;;10.02;95.94;99504.38;5043771;27;103939;-73
2022/11/10 06:20:57;;;;;;;4.57;3.23;;;;;;;10.07;96.68;99510.22;5043065;27;102975;-73
2022/11/10 06:23:44;;;;;;;4.63;2.50;;;;;;;10.08;96.33;99509.28;5040720;27;104006;-73
2022/11/10 06:26:30;;;;;;;3.70;2.33;;;;;;;10.05;95.88;99510.31;5038908;27;102588;-73
2022/11/10 06:29:17;;;;;;;4.40;2.90;;;;;;;10.03;95.81;99516.63;5038880;27;104198;-75
2022/11/10 06:32:12;;;;;;;4.37;2.47;;;;;;;10.05;95.64;99527.97;5034827;27;103148;-74
2022/11/10 06:34:59;;;;;;;3.47;2.53;;;;;;;10.07;95.76;99544.56;5044141;27;102565;-74
2022/11/10 06:37:46;;;;;;;4.97;3.63;;;;;;;9.98;95.79;99550.34;5043983;27;102909;-74
2022/11/10 06:40:33;;;;;;;5.70;3.10;;;;;;;10.03;95.80;99557.06;5040465;27;104159;-75
2022/11/10 06:43:20;;;;;;;4.53;2.70;;;;;;;9.98;96.59;99559.13;5037483;27;103095;-75
2022/11/10 06:46:07;;;;;;;3.53;2.17;;;;;;;10.15;96.65;99572.25;5039520;27;102733;-75
2022/11/10 06:48:55;;;;;;;2.90;2.40;;;;;;;10.39;96.46;99568.19;5039078;27;103493;-75
2022/11/10 06:51:41;;;;;;;3.53;2.33;;;;;;;10.60;95.59;99584.63;5038278;27;103310;-75
2022/11/10 06:54:28;;;;;;;6.90;3.30;;;;;;;10.76;94.71;99585.41;5039497;27;104016;-74
2022/11/10 06:57:14;;;;;;;3.97;3.27;;;;;;;10.71;94.75;99594.53;5039569;27;103056;-75
2022/11/10 07:00:00;;;;;;;10.43;3.77;;;;;;;10.51;96.94;99603.63;5041341;27;102748;-75
2022/11/10 07:02:47;;;;;;;8.97;4.03;;;;;;;10.80;95.96;99613.38;5039696;27;103229;-75
2022/11/10 07:05:36;;;;;;;7.90;4.00;;;;;;;10.93;94.42;99610.84;5041563;27;103197;-75
2022/11/10 07:08:23;;;;;;;8.27;3.67;;;;;;;10.79;96.16;99616.09;5040849;27;102945;-75
2022/11/10 07:11:09;;;;;;;7.03;4.00;;;;;;;11.07;95.36;99619.66;5042823;27;102602;-74
2022/11/10 07:13:55;;;;;;;4.60;3.37;;;;;;;11.37;94.14;99621.38;5039706;27;103202;-76
2022/11/10 07:16:42;;;;;;;10.07;3.37;;;;;;;11.42;93.56;99636.06;5039684;27;103176;-76
2022/11/10 07:19:31;;;;;;;3.33;2.23;;;;;;;11.86;93.11;99635.97;5041512;27;103139;-76
2022/11/10 07:22:18;;;;;;;3.97;2.20;;;;;;;12.28;90.56;99644.78;5044215;27;103329;-76
2022/11/10 07:25:06;;;;;;;3.07;1.70;;;;;;;12.59;88.28;99652.44;5036537;27;103602;-76
2022/11/10 07:27:53;;;;;;;2.97;1.67;;;;;;;12.52;88.77;99651.16;5039862;27;103142;-76
2022/11/10 07:30:40;;;;;;;2.17;1.70;;;;;;;12.80;88.93;99645.72;5040212;27;102599;-76
2022/11/10 07:33:27;;;;;;;4.30;2.20;;;;;;;13.16;86.49;99658.38;5039038;27;102693;-76
2022/11/10 07:36:13;;;;;;;3.43;2.00;;;;;;;13.40;85.16;99656.69;5041435;27;103665;-75
2022/11/10 07:39:01;;;;;;;4.80;1.50;;;;;;;13.58;84.11;99655.41;5041222;27;103152;-76
2022/11/10 07:41:48;;;;;;;3.40;2.00;;;;;;;13.64;83.54;99664.75;5048201;27;102587;-76
2022/11/10 07:44:37;;;;;;;8.90;2.97;;;;;;;13.85;83.53;99665.91;5041098;27;102717;-76
2022/11/10 07:47:24;;;;;;;2.07;1.80;;;;;;;13.89;82.37;99672.72;5038845;27;104068;-76
2022/11/10 07:50:11;;;;;;;3.10;2.50;;;;;;;13.93;82.69;99666.19;5037137;27;103377;-76
2022/11/10 07:53:05;;;;;;;3.57;2.37;;;;;;;14.04;83.06;99668.09;5037166;27;102687;-76
2022/11/10 07:55:54;;;;;;;4.33;2.40;;;;;;;14.14;82.08;99671.81;5042448;27;102882;-76
2022/11/10 07:58:40;;;;;;;6.17;3.00;;;;;;;14.02;82.21;99678.84;5034046;27;104031;-76
2022/11/10 08:01:26;;;;;;;5.73;2.73;;;;;;;13.97;83.84;99694.28;5048504;27;103737;-77
2022/11/10 08:04:13;;;;;;;2.70;2.30;;;;;;;14.01;83.66;99701.06;5040823;27;102696;-76
2022/11/10 08:06:59;;;;;;;2.90;1.80;;;;;;;14.71;80.39;99698.69;5044643;27;104278;-76
2022/11/10 08:09:46;;;;;;;5.00;2.23;;;;;;;14.93;80.03;99701.44;5038553;27;103339;-76
2022/11/10 08:12:33;;;;;;;5.37;2.50;;;;;;;14.80;80.20;99698.84;5041908;27;103059;-77
2022/11/10 08:15:20;;;;;;;5.83;2.50;;;;;;;14.96;78.48;99702.03;5040386;27;102829;-76
2022/11/10 08:18:08;;;;;;;4.27;2.03;;;;;;;15.29;79.74;99703.16;5043776;27;103992;-77
2022/11/10 08:20:55;;;;;;;5.70;1.77;;;;;;;15.51;76.97;99706.75;5040337;27;103335;-76
2022/11/10 08:23:41;;;;;;;5.97;1.63;;;;;;;15.09;79.58;99709.97;5040424;27;103162;-76
2022/11/10 08:26:28;;;;;;;3.27;2.40;;;;;;;14.93;80.29;99715.56;5044161;27;102605;-76
2022/11/10 08:29:16;;;;;;;6.63;2.43;;;;;;;15.06;77.30;99715.53;5039847;27;103751;-75
2022/11/10 08:32:02;;;;;;;6.50;1.93;;;;;;;15.23;76.83;99715.13;5044317;27;104039;-76
2022/11/10 08:34:48;;;;;;;4.80;2.43;;;;;;;15.50;78.11;99713.03;5043698;27;103743;-77
2022/11/10 08:37:35;;;;;;;3.67;2.33;;;;;;;15.56;76.60;99717.91;5046585;27;102896;-76
2022/11/10 08:40:23;;;;;;;2.10;1.90;;;;;;;16.11;74.80;99713.63;5046747;27;102968;-76
2022/11/10 08:43:10;;;;;;;1.80;1.70;;;;;;;16.45;73.67;99712.59;5047662;27;103259;-76
2022/11/10 08:45:58;;;;;;;5.43;2.50;;;;;;;16.52;74.08;99721.81;5049654;27;103285;-76
2022/11/10 08:48:45;;;;;;;3.13;2.33;;;;;;;16.64;72.87;99723.53;5040544;27;102792;-76
2022/11/10 08:51:31;;;;;;;5.47;2.83;;;;;;;16.05;75.73;99732.75;5045970;27;103075;-76
2022/11/10 08:54:23;;;;;;;5.97;2.30;;;;;;;16.44;71.89;99731.41;5037703;27;103935;-78
2022/11/10 08:57:10;;;;;;;4.07;2.27;;;;;;;16.20;74.30;99728.88;5038132;27;103137;-77
2022/11/10 08:59:56;;;;;;;5.37;2.17;;;;;;;16.34;74.47;99725.94;5040810;27;102694;-78
2022/11/10 09:02:44;;;;;;;2.77;1.50;;;;;;;16.73;72.61;99733.44;5042818;27;103418;-77
2022/11/10 09:05:31;;;;;;;2.07;1.00;;;;;;;17.02;70.57;99740.88;5042944;27;104020;-77
2022/11/10 09:08:17;;;;;;;3.77;1.40;;;;;;;16.86;70.56;99743.13;5040406;27;103137;-75
2022/11/10 09:11:04;;;;;;;5.03;1.80;;;;;;;16.68;69.25;99740.97;5039563;27;103978;-76
2022/11/10 09:13:50;;;;;;;5.50;1.57;;;;;;;16.69;68.96;99747.16;5042621;27;103921;-75
2022/11/10 09:16:37;;;;;;;4.83;1.60;;;;;;;16.39;70.13;99742.47;5039890;27;103177;-75
2022/11/10 09:19:25;;;;;;;2.77;0.90;;;;;;;16.03;66.04;99746.19;5039070;27;103130;-75
2022/11/10 09:22:11;;;;;;;1.43;1.00;;;;;;;16.07;68.64;99754.81;5043810;27;103072;-75
2022/11/10 09:24:58;;;;;;;2.63;1.27;;;;;;;15.94;68.70;99749.59;5045381;27;103990;-75
2022/11/10 09:27:44;;;;;;;5.60;1.10;;;;;;;15.90;65.41;99760.59;5040754;27;103283;-75
2022/11/10 09:30:31;;;;;;;2.80;0.90;;;;;;;16.14;66.25;99758.69;5040944;27;103165;-76
2022/11/10 09:33:17;;;;;;;4.50;0.90;;;;;;;16.22;65.85;99766.94;5046895;27;103258;-75
2022/11/10 09:36:06;;;;;;;1.93;1.10;;;;;;;15.89;63.27;99766.88;5039476;27;103285;-75
2022/11/10 09:38:52;;;;;;;1.53;1.00;;;;;;;16.18;66.15;99779.66;5035738;27;103764;-75
2022/11/10 09:41:40;;;;;;;3.60;0.90;;;;;;;16.22;66.49;99785.59;5041160;27;103126;-75
2022/11/10 09:44:29;;;;;;;3.17;0.97;;;;;;;16.11;62.27;99789.09;5039214;27;102732;-76
2022/11/10 09:47:20;;;;;;;4.27;1.30;;;;;;;16.28;62.92;99790.44;5032650;27;102631;-75
2022/11/10 09:50:36;;;;;;;3.53;1.23;;;;;;;16.23;67.09;99797.94;5039005;27;103362;-75
2022/11/10 09:53:28;;;;;;;2.47;0.87;;;;;;;16.22;65.66;99794.44;5039657;27;103133;-76
2022/11/10 09:56:21;;;;;;;2.03;1.00;;;;;;;15.74;63.69;99808.91;5040359;27;103020;-75
2022/11/10 09:59:16;;;;;;;3.43;0.90;;;;;;;16.27;63.84;99811.91;5040475;27;104091;-76
2022/11/10 10:02:05;;;;;;;3.77;1.03;;;;;;;16.38;62.68;99812.75;5039295;27;103731;-75
2022/11/10 10:05:07;;;;;;;3.37;1.20;;;;;;;16.55;64.97;99806.97;5041033;27;103351;-76
2022/11/10 10:08:00;;;;;;;0.80;0.73;;;;;;;16.59;61.91;99807.59;5040097;27;103058;-75
2022/11/10 10:10:56;;;;;;;3.77;0.90;;;;;;;16.63;59.87;99806.34;5038692;27;102683;-75
2022/11/10 10:14:03;;;;;;;1.87;0.80;;;;;;;16.80;61.59;99804.03;5045588;27;103932;-75
2022/11/10 10:16:58;;;;;;;4.70;1.20;;;;;;;17.07;60.92;99805.41;5041103;27;103089;-75
2022/11/10 10:19:50;;;;;;;3.97;1.03;;;;;;;16.59;59.11;99805.75;5037916;27;103335;-75
2022/11/10 10:23:10;;;;;;;3.92;1.00;;;;;;;17.12;58.29;99803.25;5039416;27;103845;-75
2022/11/10 10:25:59;;;;;;;2.13;0.97;;;;;;;17.03;60.96;99801.31;5039221;27;103231;-76
2022/11/10 10:28:47;;;;;;;1.70;0.70;;;;;;;17.01;58.91;99804.09;5038498;27;103132;-76
2022/11/10 10:31:39;;;;;;;2.13;1.00;;;;;;;17.20;58.25;99798.13;5044751;27;102897;-76
2022/11/10 10:34:29;;;;;;;2.17;0.95;;;;;;;17.38;57.19;99804.59;5040522;27;102662;-77
2022/11/10 10:37:23;;;;;;;3.47;1.17;;;;;;;17.46;57.79;99806.66;5040692;27;103327;-77
2022/11/10 10:40:14;;;;;;;2.33;1.08;;;;;;;16.85;57.20;99809.00;5040931;27;103884;-76
2022/11/10 10:43:03;;;;;;;1.45;0.90;;;;;;;17.40;57.37;99813.38;5038286;27;103382;-76
2022/11/10 10:46:05;;;;;;;4.32;0.82;;;;;;;17.78;57.53;99808.34;5041926;27;102667;-76
2022/11/10 10:49:08;;;;;;;3.15;1.35;;;;;;;17.52;56.11;99812.31;5037524;27;103147;-76
2022/11/10 10:52:16;;;;;;;3.97;0.88;;;;;;;17.77;56.14;99816.47;5038861;27;103185;-76
2022/11/10 10:55:07;;;;;;;3.10;1.00;;;;;;;17.91;56.69;99803.66;5040047;27;103112;-76
2022/11/10 10:58:01;;;;;;;2.92;0.90;;;;;;;18.39;55.93;99800.41;5038747;27;103554;-77
2022/11/10 11:00:54;;;;;;;3.60;0.85;;;;;;;17.86;54.88;99800.53;5041332;27;103023;-76
2022/11/10 11:03:42;;;;;;;2.97;1.00;;;;;;;18.15;55.07;99807.88;5038567;27;103189;-76
2022/11/10 11:06:30;;;;;;;4.30;0.90;;;;;;;17.20;53.94;99803.47;5041127;27;102639;-76
2022/11/10 11:09:19;;;;;;;3.33;0.70;;;;;;;17.65;56.42;99813.03;5035962;27;103564;-76
2022/11/10 11:12:08;;;;;;;3.47;1.02;;;;;;;17.70;56.00;99800.13;5040934;27;104173;-76
2022/11/10 11:15:13;;;;;;;2.92;1.00;;;;;;;17.99;55.66;99812.84;5040358;27;103120;-76
2022/11/10 11:18:04;;;;;;;2.67;1.08;;;;;;;18.00;54.36;99807.38;5036675;27;102647;-77
2022/11/10 11:21:00;;;;;;;3.22;1.15;;;;;;;18.58;52.85;99807.72;5036673;27;102850;-75
2022/11/10 11:24:10;;;;;;;2.08;1.00;;;;;;;18.44;53.74;99798.19;5042782;27;103744;-75
2022/11/10 11:27:04;;;;;;;2.80;1.10;;;;;;;18.79;52.16;99801.31;5036745;27;103261;-76
2022/11/10 11:30:04;;;;;;;2.38;1.05;;;;;;;18.98;52.65;99809.38;5041289;27;102624;-75
2022/11/10 11:33:10;;;;;;;2.33;0.88;;;;;;;18.90;51.11;99805.69;5040026;27;102654;-75
2022/11/10 11:36:02;;;;;;;2.20;0.95;;;;;;;18.95;53.31;99806.97;5036977;27;103220;-75
2022/11/10 11:38:58;;;;;;;2.95;1.00;;;;;;;19.33;50.99;99810.72;5040697;27;103760;-76
2022/11/10 11:41:53;;;;;;;3.75;0.88;;;;;;;19.56;51.98;99801.47;5040592;27;102547;-75
2022/11/10 11:44:50;;;;;;;2.25;1.10;;;;;;;19.43;50.73;99806.22;5042915;27;102742;-75
2022/11/10 11:47:53;;;;;;;2.25;0.88;;;;;;;19.67;49.98;99798.63;5044654;27;104048;-75
2022/11/10 11:50:50;;;;;;;2.28;1.05;;;;;;;19.42;49.19;99807.25;5044567;27;103145;-75
2022/11/10 11:53:55;;;;;;;5.65;1.50;;;;;;;19.19;51.48;99805.75;5038861;27;102747;-75
2022/11/10 11:56:44;;;;;;;1.80;1.08;;;;;;;19.73;51.64;99805.25;5040122;27;103672;-75
2022/11/10 11:59:57;;;;;;;2.83;1.05;;;;;;;18.73;50.91;99806.34;5040460;27;103134;-74
2022/11/10 12:03:05;;;;;;;4.05;1.25;;;;;;;18.27;52.39;99794.28;5041750;27;103145;-74
2022/11/10 12:06:03;;;;;;;2.05;0.93;;;;;;;18.94;50.92;99791.91;5042026;27;103314;-75
2022/11/10 12:08:57;;;;;;;1.42;0.65;;;;;;;19.06;50.79;99793.47;5039181;27;103915;-74
2022/11/10 12:11:59;;;;;;;4.15;0.98;;;;;;;18.96;50.16;99787.25;5040425;27;103804;-74
2022/11/10 12:14:53;;;;;;;2.22;0.93;;;;;;;19.11;49.92;99785.84;5043934;27;103106;-74
2022/11/10 12:17:50;;;;;;;4.47;0.93;;;;;;;19.56;48.59;99791.56;5041494;27;103166;-74
2022/11/10 12:20:48;;;;;;;3.10;1.25;;;;;;;19.90;49.68;99789.28;5040490;27;103843;-74
2022/11/10 12:23:48;;;;;;;2.45;0.50;;;;;;;19.57;49.09;99792.41;5038131;27;104425;-74
2022/11/10 12:26:41;;;;;;;3.47;1.02;;;;;;;20.29;47.70;99790.09;5045285;27;103152;-74
2022/11/10 12:29:34;;;;;;;3.10;1.05;;;;;;;18.52;48.13;99793.03;5040210;27;102650;-74
2022/11/10 12:32:26;;;;;;;1.60;0.60;;;;;;;18.71;48.58;99785.09;5040675;27;103740;-74
2022/11/10 12:35:17;;;;;;;2.80;0.80;;;;;;;19.33;49.05;99783.91;5039937;27;104436;-74
2022/11/10 12:38:07;;;;;;;3.28;1.17;;;;;;;19.62;48.51;99785.63;5041191;27;103258;-74
2022/11/10 12:41:01;;;;;;;1.42;0.60;;;;;;;19.62;50.54;99779.47;5039658;27;104782;-74
2022/11/10 12:44:02;;;;;;;4.20;1.00;;;;;;;19.11;49.29;99783.19;5039956;27;103784;-74
2022/11/10 12:46:53;;;;;;;4.28;0.98;;;;;;;19.04;47.67;99782.06;5040753;27;103189;-74
2022/11/10 12:49:48;;;;;;;2.67;1.30;;;;;;;17.82;50.69;99777.69;5041321;27;103149;-74
2022/11/10 12:52:39;;;;;;;2.13;0.63;;;;;;;17.86;53.47;99773.78;5043343;27;102622;-74
2022/11/10 12:55:34;;;;;;;2.15;1.13;;;;;;;18.43;52.84;99777.75;5040000;27;102920;-74
2022/11/10 12:58:22;;;;;;;2.70;1.08;;;;;;;18.74;51.17;99781.28;5045361;27;103673;-74
2022/11/10 13:01:14;;;;;;;0.80;0.70;;;;;;;17.73;52.62;99781.16;5037414;27;103132;-75
2022/11/10 13:04:01;;;;;;;3.10;1.17;;;;;;;17.95;53.40;99778.34;5042221;27;103323;-75
2022/11/10 13:06:50;;;;;;;3.60;0.80;;;;;;;17.97;52.48;99786.22;5048455;27;102778;-74
2022/11/10 13:09:41;;;;;;;2.00;0.90;;;;;;;18.18;50.97;99787.09;5034608;27;103033;-75
2022/11/10 13:12:27;;;;;;;3.70;1.00;;;;;;;17.85;52.16;99793.47;5039634;27;103129;-74
2022/11/10 13:15:51;;;;;;;2.78;0.90;;;;;;;17.95;52.76;99802.44;5044301;27;103821;-75
2022/11/10 13:18:59;;;;;;;3.95;1.20;;;;;;;18.34;51.28;99802.63;5040817;27;104268;-75
2022/11/10 13:22:09;;;;;;;1.90;0.80;;;;;;;17.89;51.48;99808.28;5040336;27;103179;-75